Time;durP1;ratioP1;P1;durP2;ratioP2;P2;SDS_P1;SDS_P2;PMS_P1;PMS_P2;Temp;Humidity;BMP_temperature;BMP_pressure;BME280_temperature;BME280_humidity;BME280_pressure;Samples;Min_cycle;Max_cycle;Signal;HPM_P1;HPM_P2
2022/08/06 00:02:24;;;;;;;11.30;8.00;;;;;;;23.53;53.50;98736.46;237566;1194;140734;-59
2022/08/06 00:07:34;;;;;;;13.00;8.40;;;;;;;23.52;53.66;98733.73;237297;1195;139652;-59
2022/08/06 00:12:50;;;;;;;10.60;8.80;;;;;;;23.51;53.76;98733.23;237297;1194;139762;-59
2022/08/06 00:17:52;;;;;;;16.20;8.90;;;;;;;23.51;53.84;98739.81;237352;1195;139520;-58
2022/08/06 00:22:58;;;;;;;15.70;8.90;;;;;;;23.48;53.97;98740.64;237366;1195;139154;-59
2022/08/06 00:28:03;;;;;;;15.50;8.70;;;;;;;23.43;54.02;98744.36;237334;1195;139204;-59
2022/08/06 00:33:13;;;;;;;13.50;8.40;;;;;;;23.35;54.06;98745.42;237512;1194;139419;-59
2022/08/06 00:38:17;;;;;;;13.00;8.50;;;;;;;23.29;54.02;98742.67;237239;1195;140261;-59
2022/08/06 00:43:21;;;;;;;11.00;8.80;;;;;;;23.23;54.16;98743.88;237384;1195;139990;-58
2022/08/06 00:48:24;;;;;;;12.10;8.70;;;;;;;23.16;54.33;98747.40;237442;1194;138979;-60
2022/08/06 00:53:48;;;;;;;12.10;8.90;;;;;;;23.10;54.44;98752.89;237292;1194;139581;-58
2022/08/06 00:58:56;;;;;;;10.30;7.80;;;;;;;23.02;54.47;98751.65;237419;1194;142135;-58
2022/08/06 01:04:05;;;;;;;14.10;8.60;;;;;;;22.94;54.70;98746.92;237196;1195;139594;-60
2022/08/06 01:09:09;;;;;;;11.30;8.60;;;;;;;22.89;54.85;98745.55;237538;1194;139445;-58
2022/08/06 01:14:12;;;;;;;15.40;8.00;;;;;;;22.85;55.01;98744.34;237280;1195;140038;-59
2022/08/06 01:19:49;;;;;;;18.20;8.90;;;;;;;22.84;55.06;98746.84;237205;1194;139239;-59
2022/08/06 01:25:15;;;;;;;15.70;8.70;;;;;;;22.85;55.25;98746.02;237388;1195;139556;-60
2022/08/06 01:30:21;;;;;;;11.20;8.80;;;;;;;22.86;55.26;98749.30;237308;1195;139867;-56
2022/08/06 01:35:36;;;;;;;14.30;8.10;;;;;;;22.84;55.24;98748.39;237302;1195;139424;-56
2022/08/06 01:40:51;;;;;;;10.60;8.50;;;;;;;22.80;55.31;98744.94;237318;1195;139777;-56
2022/08/06 01:45:55;;;;;;;13.10;8.30;;;;;;;22.75;55.29;98748.25;236430;1196;139022;-56
2022/08/06 01:51:02;;;;;;;10.90;8.20;;;;;;;22.67;55.42;98749.06;237220;1195;139356;-59
2022/08/06 01:56:08;;;;;;;12.10;8.50;;;;;;;22.60;55.47;98747.80;237301;1194;139807;-59
2022/08/06 02:01:14;;;;;;;10.50;8.20;;;;;;;22.54;55.63;98747.69;237330;1195;139690;-59
2022/08/06 02:06:27;;;;;;;10.40;8.40;;;;;;;22.46;55.62;98746.80;237298;1195;139182;-59
2022/08/06 02:11:35;;;;;;;11.10;7.80;;;;;;;22.37;55.69;98747.27;237576;1193;139884;-58
2022/08/06 02:16:59;;;;;;;15.20;8.90;;;;;;;22.28;55.86;98766.27;237319;1194;139179;-58
2022/08/06 02:22:21;;;;;;;10.50;8.60;;;;;;;22.31;56.28;98769.98;237248;1195;139797;-59
2022/08/06 02:27:32;;;;;;;12.90;8.60;;;;;;;22.48;56.54;98769.82;237339;1194;140437;-61
2022/08/06 02:32:45;;;;;;;11.70;8.50;;;;;;;22.70;56.58;98768.02;237509;1195;140140;-61
2022/08/06 02:38:02;;;;;;;10.20;8.70;;;;;;;22.87;56.40;98764.69;237206;1194;139719;-60
2022/08/06 02:43:15;;;;;;;15.70;8.90;;;;;;;22.97;56.23;98772.40;237357;1195;141247;-59
2022/08/06 02:48:33;;;;;;;19.70;9.10;;;;;;;22.97;56.10;98785.15;237262;1194;139552;-59
2022/08/06 02:53:46;;;;;;;18.00;9.30;;;;;;;22.98;56.07;98786.42;237401;1195;140133;-59
2022/08/06 02:59:10;;;;;;;11.80;9.10;;;;;;;22.99;55.89;98792.15;237493;1194;139592;-58
2022/08/06 03:04:15;;;;;;;15.40;9.90;;;;;;;22.98;56.09;98805.45;237326;1195;139457;-58
2022/08/06 03:09:19;;;;;;;14.50;10.20;;;;;;;22.97;56.12;98805.27;237473;1194;141127;-59
2022/08/06 03:14:27;;;;;;;38.90;29.50;;;;;;;23.01;56.40;98814.51;237641;1194;139535;-60
2022/08/06 03:19:50;;;;;;;14.60;11.00;;;;;;;23.12;56.54;98819.23;237298;1195;139788;-59
2022/08/06 03:25:01;;;;;;;125.50;108.60;;;;;;;23.23;56.65;98827.34;237259;1194;139665;-58
2022/08/06 03:30:06;;;;;;;20.10;14.40;;;;;;;23.41;56.69;98840.64;237320;1195;140503;-61
2022/08/06 03:35:11;;;;;;;15.40;11.40;;;;;;;23.58;56.56;98850.14;237315;1195;141920;-60
2022/08/06 03:40:37;;;;;;;20.00;12.20;;;;;;;23.69;56.40;98850.70;237446;1195;140578;-60
2022/08/06 03:45:52;;;;;;;132.30;111.90;;;;;;;23.79;56.30;98852.39;237449;1194;139661;-60
2022/08/06 03:51:02;;;;;;;22.30;12.00;;;;;;;23.78;56.30;98863.59;237527;1194;139938;-58
2022/08/06 03:56:16;;;;;;;16.80;11.30;;;;;;;23.80;56.28;98866.84;237392;1195;139235;-59
2022/08/06 04:01:22;;;;;;;21.00;11.20;;;;;;;23.82;56.33;98871.36;237635;1195;140414;-59
2022/08/06 04:06:27;;;;;;;15.50;11.40;;;;;;;23.88;56.26;98883.04;237373;1195;140511;-58
2022/08/06 04:11:31;;;;;;;61.20;54.50;;;;;;;23.88;56.35;98893.59;237388;1194;139674;-59
2022/08/06 04:16:55;;;;;;;20.20;13.50;;;;;;;23.89;56.40;98901.54;237288;1195;139982;-58
2022/08/06 04:21:59;;;;;;;17.90;12.40;;;;;;;23.80;56.18;98904.19;237311;1195;139334;-57
2022/08/06 04:27:24;;;;;;;15.20;10.90;;;;;;;23.60;56.31;98903.55;237566;1194;139911;-59
2022/08/06 04:32:33;;;;;;;21.10;11.90;;;;;;;23.46;56.47;98916.55;237410;1195;139825;-60
2022/08/06 04:37:38;;;;;;;15.40;10.90;;;;;;;23.37;56.80;98920.48;237396;1194;140455;-59
2022/08/06 04:42:42;;;;;;;15.50;11.60;;;;;;;23.35;56.97;98930.77;237427;1194;139723;-57
2022/08/06 04:47:47;;;;;;;20.50;11.60;;;;;;;23.32;57.23;98935.38;237548;1194;139325;-58
2022/08/06 04:52:50;;;;;;;19.60;12.00;;;;;;;23.36;57.37;98946.45;237350;1195;139555;-58
2022/08/06 04:57:54;;;;;;;13.80;11.30;;;;;;;23.35;57.45;98952.92;237340;1195;142354;-60
2022/08/06 05:03:03;;;;;;;13.60;10.50;;;;;;;23.34;57.45;98963.66;237622;1195;139900;-59
2022/08/06 05:08:08;;;;;;;18.70;11.60;;;;;;;23.42;57.50;98978.30;237667;1193;140025;-59
2022/08/06 05:13:17;;;;;;;15.60;10.80;;;;;;;23.56;57.69;98988.36;237389;1193;140461;-59
2022/08/06 05:18:48;;;;;;;16.60;11.10;;;;;;;23.74;57.48;98994.17;237365;1195;139726;-59
2022/08/06 05:24:13;;;;;;;14.50;10.20;;;;;;;23.85;57.29;99008.22;237552;1194;140627;-59
2022/08/06 05:29:20;;;;;;;16.30;10.00;;;;;;;23.88;57.17;99024.52;237575;1194;140252;-59
2022/08/06 05:34:25;;;;;;;19.90;9.60;;;;;;;23.90;57.04;99042.60;237259;1194;140232;-57
2022/08/06 05:39:29;;;;;;;18.50;10.60;;;;;;;23.88;57.02;99061.38;237477;1194;139549;-57
2022/08/06 05:44:51;;;;;;;18.80;10.50;;;;;;;23.90;57.08;99072.13;237640;1194;139600;-57
2022/08/06 05:50:06;;;;;;;13.10;10.50;;;;;;;23.89;57.06;99078.64;237582;1194;140645;-59
2022/08/06 05:55:18;;;;;;;14.10;9.00;;;;;;;23.88;57.04;99093.79;237531;1194;139606;-58
2022/08/06 06:00:33;;;;;;;12.10;8.20;;;;;;;23.89;57.14;99112.71;237472;1195;139021;-58
2022/08/06 06:05:46;;;;;;;8.90;7.60;;;;;;;23.87;57.03;99121.21;237584;1194;139416;-58
2022/08/06 06:11:10;;;;;;;11.30;8.00;;;;;;;23.91;57.11;99130.57;237733;1194;139439;-57
2022/08/06 06:16:17;;;;;;;;;;;;;;;23.94;57.20;99145.67;237491;1195;139637;-57
2022/08/06 06:21:37;;;;;;;10.40;8.00;;;;;;;23.95;57.22;99147.66;237863;1194;125575;-59
2022/08/06 06:27:05;;;;;;;12.00;8.20;;;;;;;23.93;57.13;99154.96;237422;1194;139384;-57
2022/08/06 06:32:41;;;;;;;12.10;7.60;;;;;;;23.96;57.21;99159.20;237395;1195;139133;-59
2022/08/06 06:37:54;;;;;;;12.40;8.00;;;;;;;23.98;57.28;99169.83;237541;1194;139357;-61
2022/08/06 06:43:17;;;;;;;9.40;8.50;;;;;;;24.06;57.32;99174.63;237505;1195;138841;-59
2022/08/06 06:48:27;;;;;;;10.80;7.70;;;;;;;24.12;57.08;99183.91;237594;1194;139097;-59
2022/08/06 06:53:35;;;;;;;12.50;7.40;;;;;;;24.13;57.14;99194.69;237460;1195;139487;-59
2022/08/06 06:59:09;;;;;;;10.90;7.30;;;;;;;24.20;57.08;99199.55;237597;1194;141553;-59
2022/08/06 07:04:21;;;;;;;8.30;7.20;;;;;;;24.24;57.28;99207.30;237535;1194;139865;-61
2022/08/06 07:09:31;;;;;;;9.50;6.60;;;;;;;24.33;57.34;99205.41;237562;1194;138838;-59
2022/08/06 07:14:47;;;;;;;7.10;6.40;;;;;;;24.47;57.49;99212.46;237477;1194;139137;-60
2022/08/06 07:20:07;;;;;;;10.00;7.00;;;;;;;24.60;57.15;99222.28;237370;1195;140737;-59
2022/08/06 07:25:13;;;;;;;10.00;6.90;;;;;;;24.67;57.16;99229.94;237339;1195;139992;-59
2022/08/06 07:30:21;;;;;;;9.30;7.10;;;;;;;24.78;57.10;99237.36;237277;1195;139697;-59
2022/08/06 07:35:31;;;;;;;8.50;7.40;;;;;;;24.91;57.06;99237.13;237184;1195;139168;-59
2022/08/06 07:40:37;;;;;;;;;;;;;;;25.07;56.92;99242.41;237466;1194;139348;-59
2022/08/06 07:45:50;;;;;;;6.60;5.50;;;;;;;25.17;56.69;99253.39;237541;1195;126063;-56
2022/08/06 07:50:59;;;;;;;51.50;39.90;;;;;;;25.21;56.63;99261.32;237406;1195;139246;-57
2022/08/06 07:56:08;;;;;;;12.00;8.60;;;;;;;25.23;56.40;99267.95;237133;1195;140177;-58
2022/08/06 08:01:19;;;;;;;14.70;12.20;;;;;;;25.22;56.28;99282.58;237316;1194;139643;-57
2022/08/06 08:06:31;;;;;;;13.10;8.50;;;;;;;25.22;56.11;99287.45;237341;1194;139723;-57
2022/08/06 08:11:46;;;;;;;13.60;8.90;;;;;;;25.21;55.99;99294.27;237693;1194;139782;-58
2022/08/06 08:17:09;;;;;;;10.10;7.60;;;;;;;25.25;55.91;99304.59;237542;1195;139607;-57
2022/08/06 08:22:15;;;;;;;9.20;8.10;;;;;;;25.27;55.77;99306.69;236989;1195;139688;-57
2022/08/06 08:27:20;;;;;;;8.70;6.70;;;;;;;25.29;55.64;99309.23;237347;1195;141012;-56
2022/08/06 08:32:25;;;;;;;9.70;7.10;;;;;;;25.26;55.36;99318.98;237197;1195;139066;-57
2022/08/06 08:37:28;;;;;;;7.00;6.30;;;;;;;25.28;55.37;99319.48;237511;1195;139148;-58
2022/08/06 08:42:40;;;;;;;7.00;6.40;;;;;;;25.33;55.34;99323.63;237517;1195;139497;-56
2022/08/06 08:47:50;;;;;;;7.60;5.40;;;;;;;25.36;55.27;99323.85;237647;1195;139479;-58
2022/08/06 08:53:08;;;;;;;14.20;7.00;;;;;;;25.37;55.21;99324.39;237487;1194;138988;-58
2022/08/06 08:58:13;;;;;;;24.20;9.20;;;;;;;25.44;55.04;99328.36;237181;1195;139437;-58
2022/08/06 09:03:39;;;;;;;12.20;5.80;;;;;;;25.53;55.12;99330.67;237098;1195;139112;-58
2022/08/06 09:08:53;;;;;;;8.20;5.10;;;;;;;25.56;54.81;99340.27;237490;1194;140158;-58
2022/08/06 09:14:08;;;;;;;9.50;4.00;;;;;;;25.56;54.52;99342.81;237250;1195;139748;-58
2022/08/06 09:19:12;;;;;;;6.50;2.70;;;;;;;25.53;54.21;99346.65;237339;1195;139570;-58
2022/08/06 09:24:16;;;;;;;7.30;2.60;;;;;;;25.49;53.81;99356.60;237365;1194;138857;-59
2022/08/06 09:29:20;;;;;;;3.60;2.50;;;;;;;25.47;53.84;99362.32;237122;1195;140429;-59
2022/08/06 09:34:35;;;;;;;3.60;2.40;;;;;;;25.44;53.71;99368.67;237587;1195;139346;-58
2022/08/06 09:39:44;;;;;;;2.90;2.30;;;;;;;25.42;53.70;99368.36;237353;1195;139280;-58
2022/08/06 09:45:12;;;;;;;2.50;2.30;;;;;;;25.37;53.60;99372.30;237536;1195;140521;-59
2022/08/06 09:50:35;;;;;;;5.20;2.60;;;;;;;25.35;53.55;99378.42;237299;1195;139815;-58
2022/08/06 09:55:38;;;;;;;4.20;2.00;;;;;;;25.35;53.51;99386.19;236834;1195;139129;-58
2022/08/06 10:00:43;;;;;;;4.50;2.30;;;;;;;25.35;53.44;99392.96;237216;1195;139543;-58
2022/08/06 10:06:06;;;;;;;2.80;2.00;;;;;;;25.35;53.32;99401.44;237387;1195;140249;-57
2022/08/06 10:11:36;;;;;;;2.80;1.70;;;;;;;25.36;53.33;99401.33;237594;1195;140003;-58
2022/08/06 10:17:11;;;;;;;3.00;2.00;;;;;;;25.36;53.16;99409.34;237470;1194;139782;-58
2022/08/06 10:22:18;;;;;;;1.80;1.70;;;;;;;25.34;53.30;99418.86;237482;1195;140835;-57
2022/08/06 10:27:30;;;;;;;2.60;1.50;;;;;;;25.31;53.36;99418.42;237217;1195;140860;-58
2022/08/06 10:33:01;;;;;;;2.90;1.30;;;;;;;25.27;53.39;99420.98;236975;1195;140049;-58
2022/08/06 10:38:05;;;;;;;1.60;1.30;;;;;;;25.24;53.34;99428.16;237256;1195;140422;-59
2022/08/06 10:43:18;;;;;;;1.90;1.30;;;;;;;25.24;53.64;99431.80;237242;1195;140135;-58
2022/08/06 10:48:23;;;;;;;1.50;1.30;;;;;;;25.22;53.49;99442.43;237241;1195;139141;-59
2022/08/06 10:53:47;;;;;;;3.50;1.50;;;;;;;25.18;53.64;99449.64;237313;1195;140440;-58
2022/08/06 10:59:12;;;;;;;1.80;1.30;;;;;;;25.07;53.49;99452.58;237389;1194;139415;-58
2022/08/06 11:04:53;;;;;;;2.00;1.50;;;;;;;24.94;53.93;99459.67;237434;1194;138853;-58
2022/08/06 11:10:14;;;;;;;2.50;1.70;;;;;;;24.72;54.34;99476.86;237500;1193;138795;-59
2022/08/06 11:15:22;;;;;;;5.20;1.80;;;;;;;24.55;54.58;99485.34;237560;1194;139208;-58
2022/08/06 11:20:36;;;;;;;3.20;1.70;;;;;;;24.46;55.06;99485.86;237312;1195;139260;-58
2022/08/06 11:25:40;;;;;;;2.20;1.80;;;;;;;24.34;55.39;99489.38;237510;1195;139154;-59
2022/08/06 11:30:51;;;;;;;2.20;1.90;;;;;;;24.24;55.69;99486.95;237581;1195;139220;-58
2022/08/06 11:35:54;;;;;;;3.00;2.10;;;;;;;24.14;56.05;99491.23;237665;1195;139959;-58
2022/08/06 11:41:08;;;;;;;4.40;2.10;;;;;;;24.04;56.50;99497.24;237419;1195;139531;-59
2022/08/06 11:46:40;;;;;;;2.50;2.00;;;;;;;23.93;56.86;99504.24;237281;1195;139206;-61
2022/08/06 11:51:58;;;;;;;1.70;1.60;;;;;;;23.81;57.26;99501.68;237735;1194;138971;-59
2022/08/06 11:57:14;;;;;;;3.20;1.10;;;;;;;23.79;57.68;99503.62;237740;1195;139886;-59
2022/08/06 12:02:41;;;;;;;0.50;0.50;;;;;;;23.78;57.95;99505.12;237288;1195;139570;-59
2022/08/06 12:08:07;;;;;;;4.00;3.10;;;;;;;23.74;58.06;99512.83;237479;1194;139526;-59
2022/08/06 12:13:38;;;;;;;1.00;0.70;;;;;;;23.64;58.10;99515.50;237285;1195;139344;-58
2022/08/06 12:19:03;;;;;;;3.80;0.80;;;;;;;23.51;58.27;99516.42;237394;1195;140148;-59
2022/08/06 12:24:06;;;;;;;0.60;0.60;;;;;;;23.39;58.59;99522.06;237670;1195;140761;-60
2022/08/06 12:29:10;;;;;;;2.00;0.70;;;;;;;23.28;58.60;99525.03;237319;1195;139029;-59
2022/08/06 12:34:25;;;;;;;1.20;0.80;;;;;;;23.26;58.73;99534.08;237371;1195;139982;-59
2022/08/06 12:45:00;;;;;;;2.40;2.10;;;;;;;23.25;58.56;99545.52;237620;1194;139761;-61
2022/08/06 12:50:20;;;;;;;3.40;3.10;;;;;;;23.20;58.42;99552.19;237654;1195;139909;-60
2022/08/06 12:55:34;;;;;;;3.60;3.20;;;;;;;23.07;58.16;99560.23;237453;1195;139566;-60
2022/08/06 13:00:41;;;;;;;3.90;3.50;;;;;;;22.94;58.20;99556.67;237503;1195;140352;-59
2022/08/06 13:05:46;;;;;;;3.50;3.10;;;;;;;22.84;58.19;99551.91;237515;1195;138882;-59
2022/08/06 13:10:51;;;;;;;3.70;3.00;;;;;;;22.73;58.24;99550.45;237440;1195;139025;-59
2022/08/06 13:16:04;;;;;;;2.40;2.20;;;;;;;22.62;58.34;99546.65;237451;1194;140004;-59
2022/08/06 13:21:19;;;;;;;3.20;2.50;;;;;;;22.57;58.43;99551.64;237541;1194;141114;-59
2022/08/06 13:26:25;;;;;;;2.50;2.30;;;;;;;22.53;58.54;99555.19;237474;1195;140031;-59
2022/08/06 13:31:29;;;;;;;2.10;1.90;;;;;;;22.50;58.59;99558.59;237476;1194;139656;-59
2022/08/06 13:36:55;;;;;;;2.90;1.70;;;;;;;22.43;58.45;99558.77;237448;1195;139743;-59
2022/08/06 13:42:12;;;;;;;1.90;1.60;;;;;;;22.28;58.40;99559.75;237436;1195;140015;-59
2022/08/06 13:47:26;;;;;;;3.40;1.30;;;;;;;22.15;58.48;99568.65;237663;1195;140216;-59
2022/08/06 13:52:49;;;;;;;3.20;1.40;;;;;;;22.17;58.70;99571.00;237148;1195;140268;-59
2022/08/06 13:58:03;;;;;;;1.90;1.30;;;;;;;22.22;58.85;99571.92;237383;1194;141456;-61
2022/08/06 14:03:06;;;;;;;3.50;2.10;;;;;;;22.22;58.71;99572.89;237425;1196;138889;-60
2022/08/06 14:08:15;;;;;;;3.60;2.00;;;;;;;22.15;58.67;99569.55;237200;1195;139975;-60
2022/08/06 14:13:36;;;;;;;2.90;2.20;;;;;;;22.13;58.87;99571.41;237462;1195;141825;-59
2022/08/06 14:18:39;;;;;;;3.10;1.60;;;;;;;22.15;58.86;99571.96;237380;1195;140371;-59
2022/08/06 14:24:02;;;;;;;1.40;1.20;;;;;;;22.32;59.54;99573.80;237261;1195;140244;-59
2022/08/06 14:29:09;;;;;;;23.10;16.80;;;;;;;22.71;59.60;99573.61;237251;1195;140024;-59
2022/08/06 14:34:35;;;;;;;4.10;1.90;;;;;;;23.00;59.41;99572.34;237332;1194;140188;-59
2022/08/06 14:39:39;;;;;;;1.20;1.00;;;;;;;23.19;58.94;99573.09;237506;1195;139222;-59
2022/08/06 14:45:05;;;;;;;3.20;1.20;;;;;;;23.24;58.45;99575.62;237080;1194;139814;-58
2022/08/06 14:50:09;;;;;;;2.80;1.30;;;;;;;23.22;58.29;99576.09;237285;1195;140348;-59
2022/08/06 14:55:13;;;;;;;7.60;6.90;;;;;;;23.29;58.18;99574.12;237334;1195;139954;-59
2022/08/06 15:00:24;;;;;;;71.90;62.60;;;;;;;23.36;57.92;99572.31;237345;1195;140436;-60
2022/08/06 15:05:38;;;;;;;8.40;5.50;;;;;;;23.37;57.68;99575.34;237212;1194;139991;-59
2022/08/06 15:11:03;;;;;;;1.30;1.10;;;;;;;23.37;57.35;99574.80;237284;1194;140113;-59
2022/08/06 15:16:15;;;;;;;0.60;0.60;;;;;;;23.17;56.98;99583.95;237262;1194;140046;-59
2022/08/06 15:21:38;;;;;;;2.40;0.80;;;;;;;23.04;56.92;99585.55;237607;1195;139283;-59
2022/08/06 15:26:57;;;;;;;2.40;0.80;;;;;;;22.94;56.90;99584.46;237171;1195;139631;-58
2022/08/06 15:32:01;;;;;;;6.70;1.30;;;;;;;22.88;56.84;99582.84;237148;1194;140018;-59
2022/08/06 15:37:20;;;;;;;2.10;1.30;;;;;;;22.80;56.81;99587.11;237260;1195;139926;-59
2022/08/06 15:42:43;;;;;;;1.40;1.10;;;;;;;22.71;56.86;99589.52;237310;1194;140421;-60
2022/08/06 15:47:45;;;;;;;3.00;1.10;;;;;;;22.58;56.66;99590.30;237414;1195;139922;-60
2022/08/06 15:52:52;;;;;;;3.50;1.20;;;;;;;22.41;56.49;99590.95;237387;1195;140149;-60
2022/08/06 15:57:55;;;;;;;4.20;1.20;;;;;;;22.22;56.70;99591.28;237274;1195;139455;-59
2022/08/06 16:03:12;;;;;;;2.60;1.30;;;;;;;22.13;56.73;99592.89;237387;1194;139722;-58
2022/08/06 16:08:16;;;;;;;2.80;1.30;;;;;;;22.02;56.73;99590.77;237403;1194;139037;-59
2022/08/06 16:13:38;;;;;;;8.10;1.40;;;;;;;21.97;56.93;99601.95;237562;1193;139761;-59
2022/08/06 16:18:42;;;;;;;38.10;34.00;;;;;;;22.00;57.39;99600.29;237150;1195;139187;-59
2022/08/06 16:23:54;;;;;;;3.60;3.20;;;;;;;22.22;57.53;99604.64;237358;1195;140028;-59
2022/08/06 16:29:05;;;;;;;3.60;1.70;;;;;;;22.28;57.29;99608.39;237375;1194;139433;-59
2022/08/06 16:34:08;;;;;;;3.80;1.50;;;;;;;22.38;57.28;99607.21;237366;1195;140147;-60
2022/08/06 16:39:13;;;;;;;;;;;;;;;22.45;57.03;99604.12;237330;1195;139402;-60
2022/08/06 16:44:37;;;;;;;1.90;1.40;;;;;;;22.48;56.76;99607.23;237245;1195;125364;-59
2022/08/06 16:50:00;;;;;;;3.00;1.20;;;;;;;22.54;56.78;99607.55;237403;1195;138921;-61
2022/08/06 16:55:23;;;;;;;2.30;1.50;;;;;;;22.62;56.67;99608.70;237498;1195;138912;-59
2022/08/06 17:00:26;;;;;;;5.90;1.60;;;;;;;22.60;56.39;99610.55;237323;1195;138948;-59
2022/08/06 17:05:49;;;;;;;3.80;1.50;;;;;;;22.54;56.21;99614.42;237354;1195;139249;-59
2022/08/06 17:10:54;;;;;;;;;;;;;;;22.49;56.08;99614.02;237401;1194;139455;-58
2022/08/06 17:16:02;;;;;;;2.40;1.40;;;;;;;22.42;56.23;99615.79;237400;1195;125404;-59
2022/08/06 17:21:05;;;;;;;4.20;1.60;;;;;;;22.43;56.27;99620.98;237338;1195;139154;-59
2022/08/06 17:26:17;;;;;;;6.30;1.30;;;;;;;22.37;55.91;99618.66;237365;1194;139221;-59
2022/08/06 17:31:37;;;;;;;4.40;1.50;;;;;;;22.34;55.97;99620.63;237395;1194;139618;-59
2022/08/06 17:36:59;;;;;;;2.80;1.70;;;;;;;22.31;55.88;99617.66;237366;1195;138996;-59
2022/08/06 17:42:22;;;;;;;2.90;1.50;;;;;;;22.30;55.95;99622.63;237200;1195;139075;-59
2022/08/06 17:47:28;;;;;;;2.90;1.30;;;;;;;22.32;56.07;99625.02;237319;1195;140745;-59
2022/08/06 17:52:50;;;;;;;2.70;1.50;;;;;;;22.27;55.74;99630.02;237539;1194;139610;-59
2022/08/06 17:57:54;;;;;;;3.30;1.30;;;;;;;22.24;55.86;99631.55;237470;1195;139379;-59
2022/08/06 18:03:17;;;;;;;4.90;1.70;;;;;;;22.19;55.60;99640.23;237587;1195;139476;-59
2022/08/06 18:08:40;;;;;;;2.80;1.30;;;;;;;22.18;55.95;99647.54;237305;1195;139682;-59
2022/08/06 18:13:53;;;;;;;2.80;1.70;;;;;;;22.18;55.87;99651.90;237226;1196;139384;-59
2022/08/06 18:18:56;;;;;;;2.90;1.60;;;;;;;22.14;55.80;99654.95;237320;1194;140035;-59
2022/08/06 18:24:00;;;;;;;3.20;1.90;;;;;;;22.08;55.67;99657.73;237387;1195;139174;-60
2022/08/06 18:29:03;;;;;;;5.00;2.00;;;;;;;22.00;55.84;99662.51;237337;1195;139276;-60
2022/08/06 18:34:08;;;;;;;3.20;1.60;;;;;;;21.93;55.84;99668.83;237395;1195;139458;-59
2022/08/06 18:39:20;;;;;;;2.60;1.50;;;;;;;21.86;55.96;99679.44;237534;1194;141148;-60
2022/08/06 18:44:43;;;;;;;3.30;1.60;;;;;;;21.82;56.07;99681.89;237470;1194;139008;-59
2022/08/06 18:49:56;;;;;;;4.90;1.40;;;;;;;21.85;56.13;99682.11;237300;1194;140243;-59
2022/08/06 18:55:02;;;;;;;3.30;1.50;;;;;;;21.84;56.29;99684.86;237195;1195;139500;-59
2022/08/06 19:00:07;;;;;;;248.80;187.00;;;;;;;21.85;56.33;99691.08;237453;1193;139114;-60
2022/08/06 19:05:21;;;;;;;15.50;7.80;;;;;;;21.88;56.36;99703.98;237537;1195;140502;-59
2022/08/06 19:10:31;;;;;;;3.50;1.90;;;;;;;21.90;56.58;99704.54;237329;1195;139442;-59
2022/08/06 19:15:34;;;;;;;5.90;1.90;;;;;;;21.86;56.44;99705.98;237536;1194;138755;-58
2022/08/06 19:20:52;;;;;;;4.70;2.60;;;;;;;21.84;56.51;99710.70;237420;1194;138986;-59
2022/08/06 19:25:56;;;;;;;4.20;2.30;;;;;;;22.01;57.02;99715.58;237471;1195;139495;-59
2022/08/06 19:31:17;;;;;;;3.70;2.40;;;;;;;22.21;56.99;99721.15;237358;1195;139776;-59
2022/08/06 19:36:41;;;;;;;2.60;1.80;;;;;;;22.32;56.62;99725.88;237371;1194;139709;-59
2022/08/06 19:41:44;;;;;;;3.80;2.00;;;;;;;22.31;56.15;99724.85;237079;1195;139697;-59
2022/08/06 19:47:05;;;;;;;68.30;56.40;;;;;;;22.28;56.02;99728.42;237350;1195;139518;-59
2022/08/06 19:52:28;;;;;;;7.30;6.60;;;;;;;22.23;56.11;99734.02;237250;1194;140298;-59
2022/08/06 19:57:30;;;;;;;2.50;1.90;;;;;;;22.28;55.89;99735.64;237776;1194;141339;-59
2022/08/06 20:02:35;;;;;;;2.70;1.50;;;;;;;22.09;55.39;99740.98;237260;1195;139421;-58
2022/08/06 20:07:52;;;;;;;2.60;1.40;;;;;;;21.86;55.26;99746.15;237555;1194;139286;-60
2022/08/06 20:13:17;;;;;;;5.00;1.80;;;;;;;21.66;55.36;99750.99;237749;1194;140069;-59
2022/08/06 20:18:20;;;;;;;2.90;1.80;;;;;;;21.56;55.54;99750.53;237508;1194;139034;-60
2022/08/06 20:23:23;;;;;;;2.50;1.70;;;;;;;21.46;55.53;99751.27;236987;1195;139398;-60
2022/08/06 20:28:30;;;;;;;3.80;1.60;;;;;;;21.37;55.58;99753.38;237132;1195;139340;-59
2022/08/06 20:33:53;;;;;;;6.40;3.80;;;;;;;21.29;55.91;99745.42;237804;1194;138981;-60
2022/08/06 20:39:02;;;;;;;8.10;1.70;;;;;;;21.22;55.99;99745.95;237695;1194;139428;-60
2022/08/06 20:44:06;;;;;;;3.80;1.70;;;;;;;21.17;56.16;99748.92;237365;1194;139258;-60
2022/08/06 20:49:10;;;;;;;3.90;1.60;;;;;;;21.16;56.16;99754.88;237215;1195;139997;-60
2022/08/06 20:54:16;;;;;;;2.50;1.50;;;;;;;21.15;56.34;99751.15;237633;1195;140206;-59
2022/08/06 20:59:20;;;;;;;3.60;1.60;;;;;;;21.20;56.41;99751.35;237557;1194;139554;-59
2022/08/06 21:04:35;;;;;;;3.30;1.70;;;;;;;21.19;56.25;99753.25;237374;1195;140528;-59
2022/08/06 21:09:58;;;;;;;4.60;1.60;;;;;;;21.15;56.39;99763.25;237461;1193;140034;-58
2022/08/06 21:15:07;;;;;;;4.90;1.70;;;;;;;21.10;56.29;99770.05;237582;1194;139034;-60
2022/08/06 21:20:27;;;;;;;3.70;1.50;;;;;;;21.04;56.40;99774.15;237594;1195;139426;-60
2022/08/06 21:25:30;;;;;;;3.50;1.70;;;;;;;20.98;56.44;99775.98;237516;1195;139598;-59
2022/08/06 21:30:49;;;;;;;3.30;2.30;;;;;;;20.95;56.51;99778.61;237423;1195;140814;-60
2022/08/06 21:35:55;;;;;;;6.30;2.50;;;;;;;20.91;56.60;99778.98;237779;1194;139836;-59
2022/08/06 21:41:26;;;;;;;3.60;2.40;;;;;;;20.89;56.60;99777.70;237692;1194;140575;-59
2022/08/06 21:46:42;;;;;;;4.40;2.30;;;;;;;20.86;56.75;99779.11;237218;1195;139177;-59
2022/08/06 21:51:52;;;;;;;3.90;1.80;;;;;;;20.81;56.87;99781.19;237555;1195;138714;-59
2022/08/06 21:56:55;;;;;;;4.20;2.10;;;;;;;20.72;56.95;99780.00;237673;1194;139035;-59
2022/08/06 22:01:59;;;;;;;8.40;2.00;;;;;;;20.68;56.93;99779.38;237759;1194;140360;-58
2022/08/06 22:07:20;;;;;;;3.60;1.90;;;;;;;20.65;57.11;99774.90;237422;1195;140553;-59
2022/08/06 22:12:26;;;;;;;4.70;2.30;;;;;;;20.63;57.20;99776.38;237485;1195;139414;-58
2022/08/06 22:17:44;;;;;;;4.00;2.00;;;;;;;20.58;57.29;99773.63;237755;1193;139639;-58
2022/08/06 22:23:05;;;;;;;3.90;2.00;;;;;;;20.50;57.37;99771.37;237665;1195;139512;-58
2022/08/06 22:28:09;;;;;;;;;;;;;;;20.42;57.38;99762.61;237826;1195;139341;-59
2022/08/06 22:33:25;;;;;;;;;;;;;;;20.31;57.60;99761.63;237795;1195;126675;-58
2022/08/06 22:38:31;;;;;;;4.60;2.20;;;;;;;20.19;57.76;99759.44;237720;1195;126043;-58
2022/08/06 22:43:34;;;;;;;3.70;2.10;;;;;;;20.10;57.92;99758.48;237551;1194;140549;-59
2022/08/06 22:48:57;;;;;;;8.20;2.20;;;;;;;19.99;58.11;99753.10;237496;1194;139621;-61
2022/08/06 22:54:00;;;;;;;5.80;2.30;;;;;;;19.94;58.32;99751.29;237597;1194;139976;-59
2022/08/06 22:59:23;;;;;;;4.40;2.30;;;;;;;19.92;58.66;99751.42;237204;1195;140422;-59
2022/08/06 23:04:46;;;;;;;6.10;2.50;;;;;;;19.93;58.88;99748.47;237571;1195;139151;-60
2022/08/06 23:09:49;;;;;;;2.90;2.00;;;;;;;19.93;59.03;99747.21;237667;1195;139011;-62
2022/08/06 23:14:54;;;;;;;3.10;2.10;;;;;;;19.94;59.08;99751.60;237410;1195;139133;-60
2022/08/06 23:19:57;;;;;;;3.50;2.10;;;;;;;19.93;59.01;99746.08;237526;1194;139482;-60
2022/08/06 23:25:00;;;;;;;3.30;2.20;;;;;;;19.95;59.17;99747.96;237565;1195;139270;-60
2022/08/06 23:30:23;;;;;;;3.20;2.10;;;;;;;19.94;59.07;99745.47;237431;1195;141874;-60
2022/08/06 23:35:27;;;;;;;3.40;2.10;;;;;;;19.94;59.07;99746.61;237084;1195;139471;-60
2022/08/06 23:40:38;;;;;;;4.20;2.50;;;;;;;19.94;59.06;99742.27;237088;1195;139101;-59
2022/08/06 23:45:43;;;;;;;5.50;2.40;;;;;;;19.93;59.17;99745.00;237483;1194;139080;-60
2022/08/06 23:50:49;;;;;;;3.30;2.00;;;;;;;19.95;59.20;99744.81;237598;1195;140216;-60
2022/08/06 23:55:56;;;;;;;3.80;2.00;;;;;;;20.00;59.25;99735.75;237650;1195;139434;-60
